Terminal Aerodrome Forecast
Issued by NWS

Home | Current Version | Previous Version | Graphics & Text | Print | Product List | Glossary On
Versions: 1 2 3 4 5 6 7 8 9 10 11 12 13 14 15 16 17 18
000
FTUS43 KIWX 280800 AAA
TAFSBN
TAF AMD
KSBN 280814Z 2808/2906 33013KT P6SM OVC012
     FM281100 34012KT P6SM SCT020 BKN040
      TEMPO 2811/2814 BKN020
     FM281400 34015G23KT P6SM BKN025
     FM281700 33016G24KT P6SM SCT035
     FM290000 31006KT P6SM SKC=

USA.gov is the U.S. government's official web portal to all federal, state and local government web resources and services.